Bondurant, Wyoming
Current Conditions -  °F | °C
As of 1:52 PM on Friday 24 Oct 2014 (Local Time) from KJAC Reporting Station
Overcast Overcast  
Wind Chill: 66°   Ceiling: 11000
Heat Index: 66°   Visibility: 10mi
Dew Point: 25°   Wind: 18mph
Humidity: 21%   Direction: 200°SSW
Pressure: 30.17"   Gusts: 30mph
Location:  43.2°N, 110.41°W
Report Text: KJAC 241952Z 20016G26KT 10SM SCT080 OVC110 19/M04 A3017
Loading
Personal Weather Stations






























Interactive Weather Map
Tropical Storm Tracking
New forecast layout! Learn more

10-Day Weather Forecast

Advertisements
Track Severe Weather on mobile